Afton, VA (22920)

3:06 PM EDT on August 23, 2014 (GMT -0400)
Idlebrink Farm | Change Station
CLOSE
Current Station
Personal Weather Station
Location: Greenfield, VA
Elevation: 665 ft
Nearby Weather Stations

Elev 665 ft 37.93 °N, 78.82 °W | Updated 29 seconds ago

Mostly Cloudy
Mostly Cloudy
75.5 °F
Feels Like 75 °F
N
0.0
Wind Variable Wind from WNW
Gusts 0.0 mph

Today
High -- | Low -- °F
--% Chance of Precip.
Yesterday
High -- | Low -- °F
Precip. -- in
6:37 AM 7:57 PM
Waning Crescent, 3% visible
Pressure 30.03 in
Visibility 10.0 miles
Clouds Scattered Clouds 1900 ft
Mostly Cloudy 5000 ft
Heat Index 75 °F
Dew Point 73 °F
Humidity 93%
Rainfall 0.11 in
Snow Depth Not available.
UV 5 out of 12
Pollen 8.20 out of 12
Air Quality Not available.
Flu Activity Not available.
METAR KSHD 231855Z AUTO 12004KT 10SM SCT019 BKN050 26/20 A3003 RMK AO2 T02570200

More Conditions Fewer Conditions

Pressure 30.03 in
Visibility 10.0 miles
Clouds Scattered Clouds 1900 ft
Mostly Cloudy 5000 ft
Heat Index 75 °F
Dew Point 73 °F
Humidity 93%
Rainfall 0.11 in
Snow Depth Not available.
UV 5 out of 12
Pollen 8.20 out of 12
Air Quality Not available.
Flu Activity Not available.
METAR KSHD 231855Z AUTO 12004KT 10SM SCT019 BKN050 26/20 A3003 RMK AO2 T02570200

More Conditions Fewer Conditions

10-Day Weather Forecast

Almanac

Astronomy

Aug. 23, 2014 Rise Set
Actual Time 6:37 AM EDT 7:57 PM EDT
Civil Twilight 6:10 AM EDT 8:25 PM EDT
Nautical Twilight 5:37 AM EDT 8:57 PM EDT
Astronomical Twilight 5:02 AM EDT 9:32 PM EDT
Moon 4:52 AM EDT 6:41 PM EDT
Length of Visible Light 14h 15m
Length of Day
13h 20m
Tomorrow will be 2m 16s shorter.
Waning Crescent, 3% of the Moon is Illuminated
Today
Waning Crescent
Aug 25
New
Sep 2
First Quarter
Sep 8
Full
Sep 15
Last Quarter

Today's Extremes

State Highs State Lows

Community

WunderPhotos

Upload Photos

1,746,580 photos uploaded!

WunderBlogs® & News

Nearby

Snow Depth

Station Depth Elevation
No new snow has been reported.

Earthquake Activity

City Distance Mag. Time & Date
No recent earthquake activity has been reported nearby.
Minimum magnitude displayed is 2.5.

Coastal Water Temperatures

Place Temperature
No Stations Reporting

Nearby Weather Stations